Time;durP1;ratioP1;P1;durP2;ratioP2;P2;SDS_P1;SDS_P2;PMS_P1;PMS_P2;Temp;Humidity;BMP_temperature;BMP_pressure;BME280_temperature;BME280_humidity;BME280_pressure;Samples;Min_cycle;Max_cycle;Signal;HPM_P1;HPM_P2
2022/09/12 00:01:39;;;;;;;48.30;17.30;;;;;;;40.25;36.96;101163.00;6157308;23;20440;-79
2022/09/12 00:04:05;;;;;;;35.90;14.40;;;;;;;39.87;37.35;101154.53;6157690;23;20931;-77
2022/09/12 00:06:34;;;;;;;29.27;15.37;;;;;;;39.65;37.69;101160.78;6158017;23;20416;-78
2022/09/12 00:09:06;;;;;;;27.10;12.60;;;;;;;39.85;37.65;101152.13;6157921;23;20384;-77
2022/09/12 00:11:39;;;;;;;23.40;14.97;;;;;;;39.72;37.98;101153.81;6157885;23;20457;-78
2022/09/12 00:14:07;;;;;;;42.43;15.13;;;;;;;39.90;37.51;101151.16;6157865;23;20523;-78
2022/09/12 00:16:35;;;;;;;26.80;15.00;;;;;;;39.76;37.89;101140.41;6157720;23;20380;-78
2022/09/12 00:19:03;;;;;;;22.27;14.27;;;;;;;39.67;37.95;101145.00;6157488;23;20410;-78
2022/09/12 00:21:29;;;;;;;20.60;12.47;;;;;;;39.74;38.12;101134.50;6157785;23;20388;-77
2022/09/12 00:23:55;;;;;;;38.93;15.13;;;;;;;40.06;37.51;101140.72;6157697;23;20499;-79
2022/09/12 00:26:21;;;;;;;44.37;14.00;;;;;;;39.59;38.23;101145.72;6157769;23;20467;-78
2022/09/12 00:28:48;;;;;;;24.50;14.03;;;;;;;39.56;38.64;101130.84;6157081;23;20415;-79
2022/09/12 00:31:18;;;;;;;30.03;13.10;;;;;;;39.97;37.47;101119.72;6157691;23;20384;-78
2022/09/12 00:33:45;;;;;;;29.07;13.87;;;;;;;39.96;37.58;101125.47;6183913;23;20445;-78
2022/09/12 00:36:15;;;;;;;26.07;13.57;;;;;;;39.83;37.62;101116.31;6157724;23;20395;-78
2022/09/12 00:38:42;;;;;;;24.60;14.93;;;;;;;39.55;37.99;101123.81;6157353;23;20431;-77
2022/09/12 00:41:19;;;;;;;28.87;12.53;;;;;;;39.65;38.00;101107.28;6157495;23;20411;-77
2022/09/12 00:43:48;;;;;;;41.47;15.27;;;;;;;39.83;37.42;101112.78;6157550;23;20475;-77
2022/09/12 00:46:42;;;;;;;29.83;13.60;;;;;;;39.96;37.18;101112.69;6157828;23;20388;-78
2022/09/12 00:49:19;;;;;;;29.90;12.07;;;;;;;40.06;37.14;101092.59;6157377;23;20419;-77
2022/09/12 00:51:53;;;;;;;19.73;13.03;;;;;;;40.05;37.01;101093.72;6157555;23;20390;-77
2022/09/12 00:54:27;;;;;;;33.13;13.83;;;;;;;40.03;36.69;101096.75;6157608;23;20392;-78
2022/09/12 00:56:57;;;;;;;29.00;11.67;;;;;;;40.17;36.58;101087.69;6183995;23;20408;-78
2022/09/12 00:59:30;;;;;;;28.97;11.93;;;;;;;40.15;36.70;101079.06;6182416;23;20407;-79
2022/09/12 01:01:57;;;;;;;45.67;15.80;;;;;;;39.79;37.38;101080.03;6182197;23;20544;-78
2022/09/12 01:04:25;;;;;;;32.97;13.10;;;;;;;39.90;37.05;101077.81;6157506;23;20914;-79
2022/09/12 01:06:53;;;;;;;30.43;12.20;;;;;;;39.80;36.76;101067.25;6157516;23;20514;-79
2022/09/12 01:09:22;;;;;;;28.73;12.17;;;;;;;39.72;37.29;101069.63;6183933;23;20359;-78
2022/09/12 01:11:50;;;;;;;27.50;13.57;;;;;;;40.12;37.07;101069.59;6157368;23;20400;-79
2022/09/12 01:14:18;;;;;;;23.43;14.13;;;;;;;40.15;36.90;101074.44;6157508;23;20379;-78
2022/09/12 01:16:46;;;;;;;26.03;11.80;;;;;;;40.01;37.33;101062.84;6157441;23;20380;-78
2022/09/12 01:19:48;;;;;;;27.47;16.37;;;;;;;39.77;37.28;101063.25;6156773;23;20376;-78
2022/09/12 01:22:25;;;;;;;34.47;12.77;;;;;;;40.21;37.00;101056.06;6157205;23;20442;-78
2022/09/12 01:25:36;;;;;;;30.17;15.97;;;;;;;39.98;36.82;101050.69;6157510;23;20388;-79
2022/09/12 01:28:53;;;;;;;26.60;11.97;;;;;;;40.31;36.26;101046.78;6161423;23;20443;-79
2022/09/12 01:31:28;;;;;;;24.10;13.77;;;;;;;39.74;37.56;101037.53;6157136;23;20404;-79
2022/09/12 01:34:25;;;;;;;31.00;14.13;;;;;;;39.61;37.74;101024.06;6157348;23;20734;-78
2022/09/12 01:37:09;;;;;;;29.10;12.87;;;;;;;39.65;37.52;101028.53;6157174;23;20510;-78
2022/09/12 01:39:46;;;;;;;24.50;14.07;;;;;;;39.27;38.07;101022.75;6183887;23;20840;-78
2022/09/12 01:42:45;;;;;;;21.33;11.53;;;;;;;39.66;37.25;101032.88;6157253;23;20430;-79
2022/09/12 01:45:26;;;;;;;20.67;11.70;;;;;;;39.87;36.75;101019.50;6094469;23;20380;-78
2022/09/12 01:48:49;;;;;;;26.90;12.70;;;;;;;39.67;37.37;101028.25;6157211;23;20380;-78
2022/09/12 01:51:25;;;;;;;19.90;12.03;;;;;;;39.65;37.19;101028.53;6093813;23;20407;-78
2022/09/12 01:53:59;;;;;;;24.10;12.77;;;;;;;39.55;37.33;101023.38;6159153;23;20384;-78
2022/09/12 01:56:28;;;;;;;27.03;15.63;;;;;;;39.64;37.64;101021.50;6159168;23;20850;-79
2022/09/12 01:58:54;;;;;;;24.27;12.17;;;;;;;39.36;38.01;101026.34;6158847;23;20442;-78
2022/09/12 02:01:28;;;;;;;39.00;13.80;;;;;;;39.57;37.78;101034.72;6158793;23;20439;-79
2022/09/12 02:04:09;;;;;;;35.57;16.20;;;;;;;39.38;38.17;101036.88;6159080;23;20387;-79
2022/09/12 02:06:43;;;;;;;31.57;14.80;;;;;;;39.90;36.91;101027.03;6159096;23;20387;-79
2022/09/12 02:09:21;;;;;;;22.50;11.70;;;;;;;39.41;37.82;101028.91;6158960;23;20376;-79
2022/09/12 02:11:51;;;;;;;26.97;13.90;;;;;;;39.51;37.20;101014.25;6159033;23;20376;-78
2022/09/12 02:14:24;;;;;;;24.93;13.43;;;;;;;39.66;37.20;101030.16;6158994;23;20860;-79
2022/09/12 02:16:57;;;;;;;38.93;14.40;;;;;;;39.74;37.55;101017.72;6185300;23;20356;-79
2022/09/12 02:19:28;;;;;;;33.80;12.00;;;;;;;39.71;37.45;101019.13;6158821;23;20426;-78
2022/09/12 02:21:59;;;;;;;25.03;13.13;;;;;;;39.88;37.34;101010.22;6158894;23;20391;-79
2022/09/12 02:24:34;;;;;;;27.10;12.40;;;;;;;39.71;37.38;101019.13;6158855;23;20391;-79
2022/09/12 02:27:33;;;;;;;24.63;12.87;;;;;;;39.64;37.30;101015.28;6158897;23;20391;-79
2022/09/12 02:29:59;;;;;;;26.40;13.00;;;;;;;39.91;37.26;101012.34;6147576;23;20392;-79
2022/09/12 02:32:50;;;;;;;28.83;14.10;;;;;;;40.07;36.94;101022.78;6183768;23;20380;-79
2022/09/12 02:35:21;;;;;;;19.83;12.60;;;;;;;40.23;36.67;101016.56;6158871;23;20380;-79
2022/09/12 02:37:57;;;;;;;33.53;15.60;;;;;;;40.22;37.13;101017.69;6158466;23;20416;-77
2022/09/12 02:40:24;;;;;;;34.37;16.40;;;;;;;39.80;37.74;101013.75;6158792;23;20387;-79
2022/09/12 02:42:51;;;;;;;26.47;14.17;;;;;;;39.84;37.29;101009.28;6158613;23;20467;-79
2022/09/12 02:45:17;;;;;;;32.33;13.20;;;;;;;40.09;37.12;101018.63;6158452;23;20376;-79
2022/09/12 02:47:59;;;;;;;35.53;18.07;;;;;;;40.07;37.29;101006.47;6158540;23;20372;-79
2022/09/12 02:50:25;;;;;;;20.00;11.53;;;;;;;39.70;37.33;101001.25;6158655;23;20368;-79
2022/09/12 02:52:54;;;;;;;27.97;13.50;;;;;;;39.60;37.78;101015.13;6158437;23;20404;-79
2022/09/12 02:55:23;;;;;;;28.07;13.30;;;;;;;39.37;38.15;101010.84;6158456;23;20381;-78
2022/09/12 02:57:49;;;;;;;31.40;13.63;;;;;;;39.17;38.54;101006.75;6158453;23;20424;-79
2022/09/12 03:00:15;;;;;;;21.47;11.87;;;;;;;39.50;37.60;101004.50;6158163;23;20482;-78
2022/09/12 03:03:20;;;;;;;23.30;12.77;;;;;;;39.03;38.23;101012.22;6158433;23;20509;-79
2022/09/12 03:05:56;;;;;;;33.53;14.37;;;;;;;39.19;38.06;101020.81;6158565;23;20415;-78
2022/09/12 03:08:38;;;;;;;27.13;13.93;;;;;;;39.56;37.39;101016.81;6158185;23;20404;-78
2022/09/12 03:11:19;;;;;;;26.93;11.53;;;;;;;40.00;36.73;101018.56;6158614;23;20385;-78
2022/09/12 03:14:19;;;;;;;25.77;12.97;;;;;;;39.40;37.71;101030.00;6158274;23;20915;-79
2022/09/12 03:17:06;;;;;;;24.93;11.17;;;;;;;39.45;37.51;101015.50;6158169;23;20384;-78
2022/09/12 03:19:52;;;;;;;25.50;13.40;;;;;;;39.25;37.82;101025.00;6158271;23;20418;-78
2022/09/12 03:22:32;;;;;;;20.30;12.33;;;;;;;39.42;37.29;101035.94;6158430;23;20398;-78
2022/09/12 03:25:23;;;;;;;29.70;11.07;;;;;;;39.21;38.06;101026.72;6158057;23;20442;-79
2022/09/12 03:28:08;;;;;;;23.13;12.57;;;;;;;39.34;37.55;101023.09;6157983;23;20731;-79
2022/09/12 03:30:43;;;;;;;29.77;15.27;;;;;;;39.86;36.85;101017.13;6158139;23;20400;-79
2022/09/12 03:33:15;;;;;;;26.73;14.10;;;;;;;39.09;38.15;101015.59;6158017;23;20752;-79
2022/09/12 03:35:42;;;;;;;19.27;13.17;;;;;;;39.17;38.01;101012.19;6158228;23;20380;-79
2022/09/12 03:38:09;;;;;;;24.00;11.80;;;;;;;38.96;37.90;101001.00;6157908;23;20467;-79
2022/09/12 03:40:38;;;;;;;20.90;12.20;;;;;;;38.68;38.53;101011.97;6158056;23;20377;-78
2022/09/12 03:43:06;;;;;;;25.30;12.20;;;;;;;39.29;37.54;101003.44;6158057;23;20384;-77
2022/09/12 03:45:33;;;;;;;25.87;11.93;;;;;;;39.04;38.25;101013.84;6157962;23;20423;-78
2022/09/12 03:47:59;;;;;;;37.70;14.63;;;;;;;38.95;38.20;101004.84;6158033;23;20372;-79
2022/09/12 03:50:25;;;;;;;40.30;17.13;;;;;;;39.08;38.10;101016.72;6158065;23;20380;-78
2022/09/12 03:52:51;;;;;;;22.00;13.30;;;;;;;39.22;37.74;101022.88;6157888;23;20412;-79
2022/09/12 03:55:17;;;;;;;30.50;13.30;;;;;;;38.73;38.88;101029.25;6157940;23;20380;-79
2022/09/12 03:57:44;;;;;;;17.63;10.20;;;;;;;38.94;38.16;101033.06;6157911;23;20501;-77
2022/09/12 04:00:11;;;;;;;37.50;14.10;;;;;;;38.86;37.77;101015.66;6157620;23;20404;-78
2022/09/12 04:02:37;;;;;;;26.70;15.37;;;;;;;39.58;37.15;101017.31;6157858;23;20443;-79
2022/09/12 04:05:03;;;;;;;29.33;13.40;;;;;;;39.83;36.56;101017.72;6157847;23;20376;-78
2022/09/12 04:07:29;;;;;;;24.93;12.90;;;;;;;39.68;36.68;101014.34;6156715;23;20845;-78
2022/09/12 04:09:55;;;;;;;27.63;12.80;;;;;;;39.50;37.07;101018.06;6157920;23;20373;-78
2022/09/12 04:12:21;;;;;;;35.23;14.03;;;;;;;39.25;37.53;101019.56;6157760;23;20387;-78
2022/09/12 04:14:48;;;;;;;32.30;14.03;;;;;;;39.19;37.75;101029.75;6157883;23;20475;-79
2022/09/12 04:17:15;;;;;;;30.37;15.57;;;;;;;39.03;38.22;101031.22;6157673;23;20424;-79
2022/09/12 04:19:41;;;;;;;24.87;14.03;;;;;;;39.14;37.97;101029.03;6157664;23;20897;-79
2022/09/12 04:22:07;;;;;;;19.97;12.87;;;;;;;38.53;38.90;101027.78;6157797;23;20376;-79
2022/09/12 04:24:33;;;;;;;31.63;13.07;;;;;;;38.73;39.42;101035.47;6157923;23;20152;-79
2022/09/12 04:26:59;;;;;;;27.73;14.63;;;;;;;38.74;39.08;101041.72;6157639;23;20380;-79
2022/09/12 04:29:25;;;;;;;35.30;14.10;;;;;;;39.07;38.50;101036.81;6157624;23;20458;-78
2022/09/12 04:31:51;;;;;;;26.10;12.13;;;;;;;38.68;39.16;101033.66;6157675;23;20387;-78
2022/09/12 04:34:17;;;;;;;23.63;11.90;;;;;;;38.83;39.23;101037.94;6158202;23;20376;-79
2022/09/12 04:36:43;;;;;;;32.10;10.73;;;;;;;38.58;39.40;101038.53;6157754;23;20455;-78
2022/09/12 04:39:10;;;;;;;20.50;13.33;;;;;;;39.12;38.48;101042.94;6157678;23;20386;-79
2022/09/12 04:41:38;;;;;;;29.97;12.60;;;;;;;39.38;38.06;101045.00;6157268;23;20380;-79
2022/09/12 04:44:07;;;;;;;33.97;14.03;;;;;;;38.73;39.03;101037.38;6157528;23;20383;-78
2022/09/12 04:46:37;;;;;;;26.27;13.87;;;;;;;38.89;38.53;101041.34;6157622;23;20376;-78
2022/09/12 04:49:04;;;;;;;26.17;11.90;;;;;;;39.24;38.13;101039.69;6157557;23;20377;-78
2022/09/12 04:51:34;;;;;;;32.63;14.67;;;;;;;38.96;38.57;101039.00;6157567;23;20735;-78
2022/09/12 04:54:07;;;;;;;34.63;15.90;;;;;;;39.04;38.63;101049.09;6157601;23;20539;-79
2022/09/12 04:56:40;;;;;;;21.23;12.63;;;;;;;39.30;38.31;101032.22;6157344;23;20884;-79
2022/09/12 04:59:07;;;;;;;30.27;13.53;;;;;;;38.62;39.52;101025.97;6157623;23;20415;-79
2022/09/12 05:01:34;;;;;;;23.40;13.37;;;;;;;38.67;39.43;101042.09;6157317;23;20506;-79
2022/09/12 05:04:01;;;;;;;26.87;14.37;;;;;;;39.23;38.15;101033.44;6157366;23;20935;-79
2022/09/12 05:06:29;;;;;;;31.63;12.07;;;;;;;39.14;38.67;101050.75;6157425;23;20380;-79
2022/09/12 05:08:57;;;;;;;29.53;13.20;;;;;;;39.10;38.07;101056.00;6157512;23;20381;-79
2022/09/12 05:11:26;;;;;;;26.53;13.00;;;;;;;38.85;38.82;101065.53;6157549;23;20380;-77
2022/09/12 05:13:52;;;;;;;16.00;8.27;;;;;;;39.35;37.18;101081.72;6157438;23;20853;-78
2022/09/12 05:16:19;;;;;;;10.40;7.03;;;;;;;38.75;35.39;101073.13;6157094;23;20408;-79
2022/09/12 05:18:46;;;;;;;6.37;3.27;;;;;;;38.61;35.87;101071.25;6156581;23;20947;-78
2022/09/12 05:21:15;;;;;;;6.83;2.97;;;;;;;38.82;35.08;101068.09;6157532;23;20380;-78
2022/09/12 05:23:42;;;;;;;8.03;4.93;;;;;;;38.72;35.28;101052.06;6157444;23;20733;-78
2022/09/12 05:26:11;;;;;;;7.63;4.53;;;;;;;37.99;36.80;101053.84;6159508;23;20459;-78
2022/09/12 05:28:38;;;;;;;9.60;7.03;;;;;;;39.05;35.69;101050.72;6159412;23;20380;-77
2022/09/12 05:31:12;;;;;;;13.53;6.73;;;;;;;39.49;35.09;101068.06;6185321;23;20387;-80
2022/09/12 05:33:40;;;;;;;17.90;7.87;;;;;;;39.78;35.32;101051.28;6158981;23;20384;-78
2022/09/12 05:36:10;;;;;;;13.80;8.53;;;;;;;39.84;34.58;101057.34;6159017;23;20415;-78
2022/09/12 05:38:37;;;;;;;17.50;7.83;;;;;;;39.76;35.10;101064.34;6159024;23;20908;-78
2022/09/12 05:41:14;;;;;;;10.87;7.50;;;;;;;39.86;35.04;101061.38;6185465;23;20357;-78
2022/09/12 05:43:41;;;;;;;28.27;10.97;;;;;;;39.79;35.21;101052.09;6185699;23;20434;-77
2022/09/12 05:46:11;;;;;;;27.57;11.40;;;;;;;39.99;35.42;101060.44;6185613;23;20380;-78
2022/09/12 05:48:39;;;;;;;28.57;13.40;;;;;;;39.37;36.61;101065.91;6184058;23;20852;-74
2022/09/12 05:51:11;;;;;;;15.70;9.50;;;;;;;39.17;37.17;101055.59;6159134;23;20395;-78
2022/09/12 05:53:38;;;;;;;16.47;10.00;;;;;;;39.57;35.84;101082.78;6159275;23;20380;-79
2022/09/12 05:56:10;;;;;;;14.30;9.33;;;;;;;39.12;36.88;101077.41;6158904;23;20887;-78
2022/09/12 05:58:39;;;;;;;12.70;8.90;;;;;;;39.43;36.23;101075.53;6158864;23;20456;-78
2022/09/12 06:01:07;;;;;;;22.70;9.40;;;;;;;39.21;36.31;101079.06;6158873;23;20747;-76
2022/09/12 06:03:47;;;;;;;22.90;10.07;;;;;;;38.57;38.02;101093.84;6159263;23;20755;-74
2022/09/12 06:06:14;;;;;;;9.37;6.50;;;;;;;38.69;37.74;101094.13;6159048;23;20462;-76
2022/09/12 06:08:43;;;;;;;11.90;8.30;;;;;;;38.68;37.68;101095.22;6158925;23;20463;-74
2022/09/12 06:11:12;;;;;;;10.20;7.20;;;;;;;38.80;37.54;101108.28;6158558;23;20401;-76
2022/09/12 06:13:39;;;;;;;9.83;7.30;;;;;;;38.12;38.10;101115.34;6158764;23;20864;-80
2022/09/12 06:16:17;;;;;;;13.20;6.90;;;;;;;37.52;39.15;101102.63;6158659;23;20995;-78
2022/09/12 06:18:54;;;;;;;9.40;5.53;;;;;;;37.46;40.13;101116.53;6158305;23;20541;-75
2022/09/12 06:21:21;;;;;;;9.47;6.43;;;;;;;37.85;38.69;101113.44;6159018;23;20875;-75
2022/09/12 06:23:48;;;;;;;9.83;6.40;;;;;;;38.29;38.26;101120.19;6158502;23;20724;-75
2022/09/12 06:26:17;;;;;;;12.47;7.70;;;;;;;38.74;37.21;101123.06;6158494;23;20376;-76
2022/09/12 06:28:48;;;;;;;10.33;5.63;;;;;;;38.33;37.37;101116.56;6158665;23;20387;-75
2022/09/12 06:31:24;;;;;;;9.10;6.07;;;;;;;38.48;37.35;101128.97;6158697;23;20809;-75
2022/09/12 06:33:52;;;;;;;13.00;8.10;;;;;;;38.47;37.69;101113.03;6185016;23;20407;-75
2022/09/12 06:36:25;;;;;;;9.60;6.10;;;;;;;38.98;36.86;101123.59;6158575;23;20387;-74
2022/09/12 06:39:00;;;;;;;11.60;7.83;;;;;;;39.32;36.52;101116.81;6158738;23;20420;-76
2022/09/12 06:41:27;;;;;;;14.93;8.87;;;;;;;39.44;36.14;101117.06;6158854;23;20897;-76
2022/09/12 06:43:53;;;;;;;7.17;4.70;;;;;;;39.35;35.71;101127.03;6158573;23;20433;-77
2022/09/12 06:46:20;;;;;;;9.03;5.40;;;;;;;39.50;35.40;101119.31;6157637;23;20380;-76
2022/09/12 06:48:47;;;;;;;10.70;6.53;;;;;;;39.46;35.25;101123.75;6158559;23;20849;-74
2022/09/12 06:51:15;;;;;;;11.37;5.20;;;;;;;39.48;35.37;101135.13;6158490;23;20698;-75
2022/09/12 06:53:43;;;;;;;10.87;6.27;;;;;;;38.64;36.14;101132.19;6158137;23;20373;-75
2022/09/12 06:56:15;;;;;;;11.67;5.20;;;;;;;38.91;35.96;101142.97;6158602;23;20380;-75
2022/09/12 06:58:42;;;;;;;9.40;5.53;;;;;;;39.05;35.87;101153.00;6158393;23;20507;-75
2022/09/12 07:01:21;;;;;;;10.10;6.07;;;;;;;39.08;35.88;101155.88;6158432;23;20377;-75
2022/09/12 07:03:52;;;;;;;10.47;6.33;;;;;;;39.29;35.86;101155.41;6185062;23;20837;-75
2022/09/12 07:06:21;;;;;;;11.20;7.63;;;;;;;39.45;35.29;101159.38;6158502;23;20691;-74
2022/09/12 07:08:47;;;;;;;13.17;9.10;;;;;;;38.99;36.06;101160.44;6134194;23;20830;-74
2022/09/12 07:11:20;;;;;;;12.33;7.37;;;;;;;39.50;35.43;101167.38;6158582;23;20380;-74
2022/09/12 07:13:53;;;;;;;13.93;8.17;;;;;;;39.64;35.21;101170.84;6158416;23;20387;-74
2022/09/12 07:16:20;;;;;;;10.27;6.67;;;;;;;39.56;35.28;101176.22;6158330;23;20380;-75
2022/09/12 07:18:50;;;;;;;9.10;5.17;;;;;;;39.47;35.25;101176.97;6158123;23;20432;-75
2022/09/12 07:21:16;;;;;;;12.47;5.80;;;;;;;39.24;35.72;101175.34;6133936;23;20384;-74
2022/09/12 07:23:43;;;;;;;10.33;6.03;;;;;;;38.78;36.08;101165.50;6184799;23;20423;-75
2022/09/12 07:26:11;;;;;;;7.90;5.93;;;;;;;39.17;35.71;101185.84;6158181;23;20403;-75
2022/09/12 07:28:37;;;;;;;8.20;4.93;;;;;;;38.55;36.68;101185.50;6158210;23;20799;-75
2022/09/12 07:31:14;;;;;;;8.90;5.93;;;;;;;38.81;36.60;101193.94;6157906;23;20889;-75
2022/09/12 07:33:42;;;;;;;11.63;6.20;;;;;;;38.78;36.42;101184.50;6158325;23;20387;-75
2022/09/12 07:36:13;;;;;;;13.90;6.47;;;;;;;38.86;36.29;101188.41;6158188;23;20387;-75
2022/09/12 07:38:40;;;;;;;10.03;5.40;;;;;;;38.54;36.88;101190.13;6157923;23;20947;-75
2022/09/12 07:41:15;;;;;;;7.90;5.47;;;;;;;38.36;37.50;101194.53;6157965;23;20438;-75
2022/09/12 07:43:41;;;;;;;9.53;5.40;;;;;;;38.87;36.29;101195.44;6157976;23;20384;-75
2022/09/12 07:46:08;;;;;;;12.10;6.23;;;;;;;39.22;35.73;101194.63;6157975;23;20479;-73
2022/09/12 07:48:35;;;;;;;7.93;5.47;;;;;;;39.47;34.67;101195.97;6157687;23;20383;-74
2022/09/12 07:51:04;;;;;;;9.83;5.60;;;;;;;39.31;34.98;101199.34;6157853;23;20452;-74
2022/09/12 07:53:36;;;;;;;8.13;6.33;;;;;;;39.02;35.38;101199.72;6157928;23;20726;-74
2022/09/12 07:56:03;;;;;;;9.37;5.67;;;;;;;38.59;36.15;101200.84;6184486;23;20357;-75
2022/09/12 07:58:30;;;;;;;9.87;7.07;;;;;;;38.69;36.18;101210.69;6157710;23;20931;-75
2022/09/12 08:01:14;;;;;;;10.53;6.80;;;;;;;38.30;37.18;101214.69;6157886;23;20384;-74
2022/09/12 08:03:41;;;;;;;11.50;7.60;;;;;;;38.03;37.53;101229.00;6157956;23;20408;-74
2022/09/12 08:06:13;;;;;;;12.83;6.87;;;;;;;38.58;36.46;101228.28;6157977;23;20387;-74
2022/09/12 08:08:39;;;;;;;12.27;7.63;;;;;;;38.83;35.73;101237.81;6157756;23;20845;-75
2022/09/12 08:11:08;;;;;;;9.80;5.90;;;;;;;39.13;35.59;101242.59;6157849;23;20724;-75
2022/09/12 08:13:37;;;;;;;13.13;7.70;;;;;;;38.98;35.65;101242.94;6157860;23;20459;-74
2022/09/12 08:16:06;;;;;;;9.70;6.03;;;;;;;38.62;35.76;101245.56;6184374;23;20443;-74
2022/09/12 08:18:35;;;;;;;14.73;7.57;;;;;;;38.73;36.12;101254.28;6157774;23;20433;-74
2022/09/12 08:21:15;;;;;;;10.80;7.60;;;;;;;39.23;35.08;101260.59;6157668;23;20708;-75
2022/09/12 08:23:42;;;;;;;12.93;7.60;;;;;;;38.51;35.72;101263.91;6157721;23;20384;-75
2022/09/12 08:26:10;;;;;;;8.13;6.60;;;;;;;38.94;35.27;101275.28;6157478;23;20403;-75
2022/09/12 08:28:36;;;;;;;11.67;7.70;;;;;;;39.21;35.25;101279.88;6157711;23;20916;-76
2022/09/12 08:31:05;;;;;;;15.20;8.33;;;;;;;39.31;34.73;101283.47;6157492;23;20408;-75
2022/09/12 08:33:32;;;;;;;11.67;8.00;;;;;;;39.14;34.93;101286.78;6157797;23;20380;-75
2022/09/12 08:36:14;;;;;;;10.07;8.17;;;;;;;39.37;34.85;101287.69;6183942;23;20784;-76
2022/09/12 08:38:43;;;;;;;14.43;9.07;;;;;;;39.32;34.79;101295.94;6157501;23;20502;-74
2022/09/12 08:41:18;;;;;;;15.60;9.67;;;;;;;39.60;34.63;101297.50;6157491;23;20407;-74
2022/09/12 08:44:08;;;;;;;12.63;8.37;;;;;;;39.71;34.48;101306.19;6157730;23;20391;-75
2022/09/12 08:46:37;;;;;;;13.03;9.00;;;;;;;39.82;34.20;101310.25;6157710;23;20426;-76
2022/09/12 08:49:08;;;;;;;18.27;11.30;;;;;;;39.80;33.85;101319.84;6157546;23;20459;-74
2022/09/12 08:51:35;;;;;;;20.07;15.70;;;;;;;39.85;34.68;101328.69;6157523;23;20384;-74
2022/09/12 08:54:03;;;;;;;34.90;21.23;;;;;;;39.36;35.20;101330.31;6157616;23;20871;-77
2022/09/12 08:56:36;;;;;;;16.93;12.23;;;;;;;39.47;34.78;101328.16;6157475;23;20768;-76
2022/09/12 08:59:02;;;;;;;18.07;13.13;;;;;;;39.22;34.88;101324.88;6157313;23;20474;-76
2022/09/12 09:01:41;;;;;;;18.13;11.83;;;;;;;39.43;35.25;101321.75;6157304;23;20432;-75
2022/09/12 09:04:32;;;;;;;17.00;12.40;;;;;;;39.34;35.42;101313.50;6157542;23;20405;-75
2022/09/12 09:07:17;;;;;;;16.93;12.07;;;;;;;39.43;34.95;101295.41;6184021;23;20909;-76
2022/09/12 09:10:27;;;;;;;18.50;14.40;;;;;;;39.54;34.71;101287.84;6157490;23;20387;-77
2022/09/12 09:12:59;;;;;;;19.50;12.90;;;;;;;39.58;34.49;101304.28;6157164;23;20467;-75
2022/09/12 09:16:15;;;;;;;14.40;11.07;;;;;;;39.64;34.53;101298.47;6157436;23;20404;-75
2022/09/12 09:18:44;;;;;;;16.57;11.23;;;;;;;40.05;33.87;101299.44;6098565;23;20438;-73
2022/09/12 09:21:23;;;;;;;20.30;11.47;;;;;;;39.96;33.95;101300.16;6157834;23;20924;-74
2022/09/12 09:24:12;;;;;;;16.70;12.07;;;;;;;39.28;34.91;101295.72;6157488;23;20403;-78
2022/09/12 09:26:52;;;;;;;15.93;11.23;;;;;;;39.67;34.79;101295.16;6182327;23;20915;-78
2022/09/12 09:29:21;;;;;;;18.50;11.10;;;;;;;39.58;34.52;101279.88;6157293;23;20454;-77
2022/09/12 09:31:58;;;;;;;16.50;12.60;;;;;;;39.61;34.59;101277.38;6157385;23;20380;-75
2022/09/12 09:34:28;;;;;;;20.43;11.23;;;;;;;39.79;34.16;101280.22;6157496;23;20805;-74
2022/09/12 09:37:20;;;;;;;13.60;10.57;;;;;;;39.98;34.02;101286.25;6157454;23;20459;-73
2022/09/12 09:40:16;;;;;;;12.33;9.43;;;;;;;39.83;34.24;101284.69;6157399;23;20435;-77
2022/09/12 09:43:04;;;;;;;17.07;11.40;;;;;;;39.81;34.19;101283.41;6157412;23;20392;-76
2022/09/12 09:45:30;;;;;;;21.53;15.30;;;;;;;39.09;35.69;101282.28;6183716;23;20356;-76
2022/09/12 09:48:12;;;;;;;22.80;14.60;;;;;;;39.67;34.84;101278.84;6183704;23;20388;-76
2022/09/12 09:50:38;;;;;;;23.80;13.10;;;;;;;39.72;34.84;101283.38;6183845;23;20367;-76
2022/09/12 09:53:18;;;;;;;21.70;15.03;;;;;;;39.95;34.53;101284.16;6157393;23;20475;-77
2022/09/12 09:55:45;;;;;;;18.07;13.47;;;;;;;39.99;34.49;101293.28;6157359;23;20396;-75
2022/09/12 09:58:26;;;;;;;14.23;11.17;;;;;;;39.73;34.61;101280.34;6183747;23;20415;-76
2022/09/12 10:00:59;;;;;;;17.73;10.03;;;;;;;39.86;34.53;101286.81;6157111;23;20403;-76
2022/09/12 10:03:39;;;;;;;14.53;9.87;;;;;;;40.05;34.17;101285.84;6183634;23;20730;-74
2022/09/12 10:06:37;;;;;;;14.70;9.57;;;;;;;40.14;34.25;101284.75;6157314;23;20864;-75
2022/09/12 10:09:18;;;;;;;13.87;8.20;;;;;;;39.82;34.69;101285.81;6132663;23;20380;-76
2022/09/12 10:11:47;;;;;;;12.90;8.67;;;;;;;39.94;34.05;101282.53;6157600;23;20440;-76
2022/09/12 10:14:39;;;;;;;17.33;8.73;;;;;;;39.79;34.60;101280.22;6159061;23;20381;-75
2022/09/12 10:17:27;;;;;;;14.87;9.17;;;;;;;40.00;34.63;101276.66;6158902;23;20380;-74
2022/09/12 10:19:53;;;;;;;14.63;9.60;;;;;;;40.22;34.41;101269.63;6185388;23;20356;-75
2022/09/12 10:22:27;;;;;;;15.00;9.57;;;;;;;40.22;34.18;101265.00;6158934;23;20406;-75
2022/09/12 10:24:58;;;;;;;19.93;10.40;;;;;;;40.43;34.19;101269.88;6158890;23;20857;-75
2022/09/12 10:27:27;;;;;;;18.37;9.57;;;;;;;40.47;33.95;101262.69;6158777;23;20729;-75
2022/09/12 10:29:59;;;;;;;18.30;11.30;;;;;;;40.54;34.10;101272.03;6158764;23;20409;-74
2022/09/12 10:32:38;;;;;;;19.43;13.87;;;;;;;40.51;34.39;101264.47;6158934;23;20388;-75
2022/09/12 10:35:15;;;;;;;22.57;11.40;;;;;;;40.48;34.23;101262.41;6158470;23;20766;-74
2022/09/12 10:37:52;;;;;;;28.53;10.87;;;;;;;40.44;34.70;101263.31;6158652;23;20784;-75
2022/09/12 10:40:44;;;;;;;19.63;9.97;;;;;;;40.63;33.89;101257.66;6158467;23;20896;-75
2022/09/12 10:43:25;;;;;;;17.23;9.70;;;;;;;40.59;34.13;101254.78;6152065;23;20480;-75
2022/09/12 10:45:57;;;;;;;19.10;7.97;;;;;;;40.67;33.50;101245.81;6158701;23;20450;-74
2022/09/12 10:48:31;;;;;;;17.20;8.57;;;;;;;40.62;33.62;101245.97;6184941;23;20857;-75
2022/09/12 10:51:01;;;;;;;17.10;9.97;;;;;;;40.67;33.49;101245.81;6158687;23;20388;-74
2022/09/12 10:53:42;;;;;;;14.63;7.70;;;;;;;40.70;33.48;101242.50;6158536;23;20450;-74
2022/09/12 10:56:15;;;;;;;12.57;7.53;;;;;;;40.75;33.02;101245.03;6158563;23;20780;-74
2022/09/12 10:58:48;;;;;;;9.93;6.73;;;;;;;40.78;33.58;101232.75;6158375;23;20436;-74
2022/09/12 11:01:23;;;;;;;11.73;6.53;;;;;;;40.85;33.19;101238.50;6158251;23;20885;-75
2022/09/12 11:04:01;;;;;;;14.53;7.43;;;;;;;40.83;33.22;101239.97;6158479;23;20429;-75
2022/09/12 11:06:43;;;;;;;11.00;7.10;;;;;;;40.85;33.21;101235.00;6158392;23;20917;-74
2022/09/12 11:09:36;;;;;;;14.17;8.40;;;;;;;40.89;33.24;101244.13;6158463;23;20380;-75
2022/09/12 11:12:32;;;;;;;21.10;10.47;;;;;;;40.90;33.26;101243.00;6158296;23;20419;-75
2022/09/12 11:15:16;;;;;;;17.60;9.47;;;;;;;40.97;33.04;101243.34;6157502;23;20384;-75
2022/09/12 11:18:26;;;;;;;14.13;7.07;;;;;;;41.07;32.94;101245.78;6158112;23;20490;-75
2022/09/12 11:21:08;;;;;;;16.20;6.73;;;;;;;41.04;33.38;101235.53;6158333;23;20404;-75
2022/09/12 11:23:43;;;;;;;24.07;11.67;;;;;;;40.98;33.46;101226.72;6184853;23;20400;-75
2022/09/12 11:26:12;;;;;;;17.47;9.87;;;;;;;40.89;33.57;101211.47;6157999;23;20407;-75
2022/09/12 11:29:04;;;;;;;16.70;9.80;;;;;;;40.88;33.18;101196.25;6184720;23;20345;-76
2022/09/12 11:31:48;;;;;;;14.00;9.40;;;;;;;41.02;33.49;101186.06;6158349;23;20445;-75
2022/09/12 11:34:36;;;;;;;15.37;7.70;;;;;;;41.00;33.26;101171.97;6158067;23;20440;-75
2022/09/12 11:37:14;;;;;;;15.33;8.10;;;;;;;40.97;33.65;101170.69;6158129;23;20385;-75
2022/09/12 11:39:45;;;;;;;11.70;7.40;;;;;;;40.97;33.25;101178.06;6133819;23;20384;-75
2022/09/12 11:42:29;;;;;;;15.93;8.40;;;;;;;41.06;32.98;101167.97;6184615;23;20444;-75
2022/09/12 11:45:20;;;;;;;14.90;6.90;;;;;;;41.03;33.24;101174.06;6133596;23;20860;-75